Abbeville, SC (29620)

8:57 PM EDT on August 24, 2016 (GMT -0400)
Mt. Carmel Rd. | | Change Station

Elev 614 ft 34.12 °N, 82.42 °W | Updated 23 seconds ago

Clear
Clear
75.4 °F
Feels Like 75 °F
N
0.0
Wind Variable Wind from West

Today
High -- | Low -- °F
--% Chance of Precip.
Yesterday
High -- | Low -- °F
Precip. -- in
Pressure 30.19 in
Visibility 10.0 miles
Clouds Clear
Heat Index 75 °F
Dew Point 71 °F
Humidity 87%
Rainfall in
Snow Depth Not available.
6:57 AM 8:05 PM
Waning Gibbous, 51% visible
METAR KGRD 242356Z AUTO 36003KT 10SM CLR 26/21 A3021 RMK AO2 SLP222 T02560211 10294 20256 56011
Pressure 30.19 in
Visibility 10.0 miles
Clouds Clear
Heat Index 75 °F
Dew Point 71 °F
Humidity 87%
Rainfall in
Snow Depth Not available.
6:57 AM 8:05 PM
Waning Gibbous, 51% visible
METAR KGRD 242356Z AUTO 36003KT 10SM CLR 26/21 A3021 RMK AO2 SLP222 T02560211 10294 20256 56011

10-Day Weather Forecast

Almanac

Astronomy

Aug. 24, 2016 Rise Set
Actual Time
Civil Twilight
Nautical Twilight
Astronomical Twilight
Moon
Length of Visible Light
Length of Day
Tomorrow will be .
, % of the Moon is Illuminated

Today's Extremes

State Highs State Lows

Community

WunderPhotos

Upload Photos

1,934,748 photos uploaded!

WunderBlog® & News

Nearby

Air Quality

  Air Quality AQ Index Pollutant
Not available.

Snow Depth

Station Depth Elevation

Earthquake Activity

City Distance Mag. Time & Date
Minimum magnitude displayed is 2.5.

Coastal Water Temperatures

Place Temperature

Stations

Nearby Weather Stations

Station Location Temp. Windchill Dew Point Humidity Wind Precip. Elev Updated Type
                   

Watches & Warnings

There are currently no watches in effect.